Hlavní strana
METAR-TAF:

METAR-TAF

Letiště :

Ammán, Jordánsko

zeměpisná šířka: 31-59N, zeměpisná délka: 035-59E, výška: 767 m

Aktuální stav počasí

Zpráva byla vytvořena před 25 minutami, v 09:00 UTC
Severní vítr 10 kt
Teplota 27°C
Vlhkost vzduchu 32%
Tlak 1016 hPa
Viditelnost: 6000 m

METAR: OJAM 200900Z 35010KT 6000 NSC 27/09 Q1016 NOSIG

Čas: 12:25 (09:25 UTC)

Předpověď počasí

Zpráva byla vytvořena před 4 hodinami a 55 minutami, v 04:30 UTC
Předpověď platná od 20 v 06 UTC do 21 v 12 UTC
Západní vítr 5 kt
Viditelnost: 5000 m
zákal
Dočasný
od 20 v 12 UTC do 20 v 18 UTC
Západoseverozápadní vítr 12 kt
Viditelnost: 6000 m

TAF: OJAM 200430Z 2006/2112 28005KT 5000 HZ NSC TEMPO 2012/2018 30012KT 6000

Stav a předpovědi počasí z více než 4 000 letišť (zprávy METAR a TAF).

Červené a žluté tečky na mapě představují dostupné meteorologické stanice.

Když kurzor umístíte na tečku, zobrazí se název stanice.

Pak kliknutím zobrazíte stav a předpověď počasí.

Chcete-li změnit mapu, kliknutím na zelené tlačítko se znaménkem +mapu přiblížíte, kliknutím na zelené tlačítko se znaménkem – mapu oddálíte a kliknutím na zelené šipky přejdete na sousední mapy.


METAR-TAF: